Terminal Aerodrome Forecast
Issued by NWS

Home | Current Version | Previous Version | Graphics & Text | Print | Product List | Glossary On
Versions: 1 2 3 4 5 6 7 8 9 10 11 12 13 14 15 16 17 18 19
000
FTUS43 KBIS 140133 AAA
TAFDIK
TAF AMD
KDIK 140133Z 1402/1424 25008KT P6SM SCT013
     FM140600 27010KT P6SM BKN030
     FM141200 28014KT P6SM OVC040
     FM141400 29015G23KT P6SM OVC050
     FM141700 32019G28KT 6SM BLSN OVC010
     FM142100 33018G26KT P6SM BKN020=

USA.gov is the U.S. government's official web portal to all federal, state and local government web resources and services.